createdAt,value
2022-10-12T00:01:41.972Z,97079.13
2022-10-12T00:04:08.725Z,97024.91
2022-10-12T00:06:35.360Z,97053.84
2022-10-12T00:09:01.987Z,97061.00
2022-10-12T00:11:30.053Z,97085.81
2022-10-12T00:13:58.375Z,97051.28
2022-10-12T00:16:26.024Z,97079.50
2022-10-12T00:18:57.048Z,97065.28
2022-10-12T00:21:24.754Z,97069.19
2022-10-12T00:23:51.980Z,97079.56
2022-10-12T00:26:20.731Z,97060.31
2022-10-12T00:28:47.912Z,97079.22
2022-10-12T00:31:17.608Z,97080.09
2022-10-12T00:33:44.713Z,97073.63
2022-10-12T00:36:26.607Z,97045.81
2022-10-12T00:38:54.950Z,97035.84
2022-10-12T00:41:24.807Z,97055.00
2022-10-12T00:43:57.617Z,97070.56
2022-10-12T00:46:34.730Z,97066.69
2022-10-12T00:49:11.876Z,97046.22
2022-10-12T00:51:40.653Z,97067.34
2022-10-12T00:54:11.804Z,97017.44
2022-10-12T00:56:42.083Z,97031.75
2022-10-12T00:59:12.558Z,97034.59
2022-10-12T01:01:39.871Z,97062.19
2022-10-12T01:04:07.306Z,97020.75
2022-10-12T01:06:35.263Z,97060.78
2022-10-12T01:09:02.474Z,97067.09
2022-10-12T01:11:29.108Z,97055.75
2022-10-12T01:13:56.469Z,97048.34
2022-10-12T01:16:51.679Z,97000.06
2022-10-12T01:19:42.728Z,97069.56
2022-10-12T01:22:20.347Z,97019.19
2022-10-12T01:25:05.899Z,97042.22
2022-10-12T01:27:50.635Z,97067.63
2022-10-12T01:30:17.200Z,97060.59
2022-10-12T01:33:02.370Z,97063.00
2022-10-12T01:35:42.619Z,97064.31
2022-10-12T01:38:18.653Z,97021.09
2022-10-12T01:40:55.866Z,97066.47
2022-10-12T01:43:23.632Z,97058.81
2022-10-12T01:45:50.604Z,97015.81
2022-10-12T01:48:17.857Z,97006.84
2022-10-12T01:50:52.419Z,97059.44
2022-10-12T01:53:18.929Z,97059.72
2022-10-12T01:55:48.559Z,97054.91
2022-10-12T01:58:15.055Z,97049.34
2022-10-12T02:01:02.915Z,97051.72
2022-10-12T02:03:41.821Z,97041.38
2022-10-12T02:06:13.661Z,97015.44
2022-10-12T02:09:19.159Z,97036.22
2022-10-12T02:11:48.413Z,96994.09
2022-10-12T02:14:22.914Z,96985.66
2022-10-12T02:17:01.990Z,97045.13
2022-10-12T02:19:35.717Z,97012.66
2022-10-12T02:22:06.171Z,97045.34
2022-10-12T02:24:35.346Z,97053.97
2022-10-12T02:27:03.196Z,97040.44
2022-10-12T02:29:36.740Z,97025.28
2022-10-12T02:32:43.853Z,97012.50
2022-10-12T02:35:13.413Z,97044.50
2022-10-12T02:38:01.961Z,97016.50
2022-10-12T02:40:56.280Z,97038.81
2022-10-12T02:43:45.328Z,97017.13
2022-10-12T02:46:12.872Z,97025.38
2022-10-12T02:48:41.715Z,97025.78
2022-10-12T02:51:11.100Z,97012.94
2022-10-12T02:53:38.671Z,97022.09
2022-10-12T02:56:10.669Z,96943.28
2022-10-12T02:58:37.331Z,97008.84
2022-10-12T03:01:04.632Z,96990.06
2022-10-12T03:03:31.328Z,96966.31
2022-10-12T03:05:57.966Z,97023.50
2022-10-12T03:08:24.701Z,96983.09
2022-10-12T03:10:51.392Z,96978.53
2022-10-12T03:13:17.989Z,97003.25
2022-10-12T03:15:44.648Z,97018.03
2022-10-12T03:18:11.377Z,96993.25
2022-10-12T03:20:38.020Z,96985.22
2022-10-12T03:23:04.606Z,96978.84
2022-10-12T03:25:31.207Z,96942.00
2022-10-12T03:27:57.754Z,96999.19
2022-10-12T03:30:24.373Z,97006.31
2022-10-12T03:32:50.942Z,96979.78
2022-10-12T03:35:17.891Z,96975.91
2022-10-12T03:37:44.491Z,96955.25
2022-10-12T03:40:11.544Z,96994.34
2022-10-12T03:42:38.271Z,97002.75
2022-10-12T03:45:05.351Z,96983.31
2022-10-12T03:47:32.009Z,96995.91
2022-10-12T03:49:58.604Z,97004.50
2022-10-12T03:52:25.379Z,96991.16
2022-10-12T03:54:52.008Z,97037.66
2022-10-12T03:57:18.647Z,97030.78
2022-10-12T03:59:45.261Z,97031.25
2022-10-12T04:02:16.493Z,96971.00
2022-10-12T04:04:43.688Z,96885.66
2022-10-12T04:07:10.591Z,96978.22
2022-10-12T04:09:37.449Z,97014.41
2022-10-12T04:12:04.276Z,97000.56
2022-10-12T04:14:30.931Z,97029.50
2022-10-12T04:16:57.596Z,97010.13
2022-10-12T04:19:24.227Z,97011.19
2022-10-12T04:21:50.859Z,96972.09
2022-10-12T04:24:17.506Z,96942.13
2022-10-12T04:26:44.136Z,97034.44
2022-10-12T04:29:13.467Z,97039.88
2022-10-12T04:31:40.704Z,96949.81
2022-10-12T04:34:08.745Z,97031.75
2022-10-12T04:36:35.598Z,97038.88
2022-10-12T04:39:02.503Z,97039.25
2022-10-12T04:41:29.411Z,97003.53
2022-10-12T04:43:56.107Z,97005.69
2022-10-12T04:46:22.816Z,97034.91
2022-10-12T04:48:49.502Z,97001.44
2022-10-12T04:51:16.128Z,97009.28
2022-10-12T04:53:42.780Z,96986.06
2022-10-12T04:56:09.795Z,97041.94
2022-10-12T04:58:36.501Z,97048.25
2022-10-12T05:01:03.518Z,97052.22
2022-10-12T05:03:30.166Z,97006.78
2022-10-12T05:05:56.791Z,96969.97
2022-10-12T05:08:23.528Z,97012.75
2022-10-12T05:10:50.112Z,97023.22
2022-10-12T05:13:16.821Z,97008.53
2022-10-12T05:15:44.208Z,97044.00
2022-10-12T05:18:11.263Z,97050.59
2022-10-12T05:20:38.354Z,97011.19
2022-10-12T05:23:05.019Z,96944.13
2022-10-12T05:25:31.850Z,97011.16
2022-10-12T05:27:58.455Z,97059.50
2022-10-12T05:30:25.230Z,97015.09
2022-10-12T05:32:52.067Z,97047.13
2022-10-12T05:35:18.699Z,97008.75
2022-10-12T05:37:45.352Z,97025.75
2022-10-12T05:40:12.196Z,96994.63
2022-10-12T05:42:39.277Z,97052.81
2022-10-12T05:45:06.783Z,96968.41
2022-10-12T05:47:33.461Z,97031.66
2022-10-12T05:50:00.043Z,97023.31
2022-10-12T05:52:26.654Z,97014.94
2022-10-12T05:54:53.222Z,97034.00
2022-10-12T05:57:20.807Z,97035.50
2022-10-12T05:59:47.468Z,97017.00
2022-10-12T06:02:16.866Z,97047.78
2022-10-12T06:04:43.699Z,96998.91
2022-10-12T06:07:10.338Z,97055.28
2022-10-12T06:09:39.677Z,97059.75
2022-10-12T06:12:07.553Z,97056.59
2022-10-12T06:14:34.173Z,97041.41
2022-10-12T06:17:00.882Z,97042.72
2022-10-12T06:19:27.562Z,97035.69
2022-10-12T06:21:54.224Z,97037.31
2022-10-12T06:24:20.818Z,97028.66
2022-10-12T06:26:47.405Z,97032.81
2022-10-12T06:29:14.068Z,97060.03
2022-10-12T06:31:40.818Z,97020.13
2022-10-12T06:34:07.517Z,97046.28
2022-10-12T06:36:34.199Z,97005.47
2022-10-12T06:39:00.816Z,97055.84
2022-10-12T06:41:27.689Z,97039.38
2022-10-12T06:43:54.305Z,97039.16
2022-10-12T06:46:20.975Z,97046.50
2022-10-12T06:48:47.634Z,97009.38
2022-10-12T06:51:14.459Z,97019.00
2022-10-12T06:53:41.043Z,97061.25
2022-10-12T06:56:09.290Z,97075.25
2022-10-12T06:58:35.901Z,96999.13
2022-10-12T07:01:04.146Z,97084.56
2022-10-12T07:03:31.161Z,97069.00
2022-10-12T07:06:12.122Z,97043.72
2022-10-12T07:08:41.035Z,97085.34
2022-10-12T07:11:10.297Z,97084.50
2022-10-12T07:13:37.175Z,97078.41
2022-10-12T07:16:04.233Z,97048.38
2022-10-12T07:18:30.856Z,97084.06
2022-10-12T07:20:59.669Z,97066.75
2022-10-12T07:23:27.378Z,97087.31
2022-10-12T07:25:54.323Z,97036.91
2022-10-12T07:28:21.533Z,97076.69
2022-10-12T07:30:48.487Z,97062.13
2022-10-12T07:33:15.292Z,97021.13
2022-10-12T07:36:03.297Z,97033.47
2022-10-12T07:38:29.755Z,97080.44
2022-10-12T07:41:02.387Z,97061.81
2022-10-12T07:43:30.486Z,97074.91
2022-10-12T07:45:57.551Z,97080.09
2022-10-12T07:48:24.182Z,97036.69
2022-10-12T07:50:50.868Z,97064.91
2022-10-12T07:53:17.709Z,97060.81
2022-10-12T07:55:44.370Z,97091.94
2022-10-12T07:58:11.002Z,97106.13
2022-10-12T08:00:37.694Z,97105.19
2022-10-12T08:03:04.432Z,97098.47
2022-10-12T08:05:31.000Z,97075.78
2022-10-12T08:07:57.639Z,97072.75
2022-10-12T08:10:24.249Z,97065.94
2022-10-12T08:12:52.248Z,97121.22
2022-10-12T08:15:19.178Z,97121.72
2022-10-12T08:17:45.808Z,97033.75
2022-10-12T08:20:12.443Z,97095.38
2022-10-12T08:22:39.076Z,97036.88
2022-10-12T08:25:06.470Z,97091.81
2022-10-12T08:27:33.151Z,97088.59
2022-10-12T08:29:59.753Z,97103.72
2022-10-12T08:32:26.543Z,97081.84
2022-10-12T08:34:53.228Z,97081.94
2022-10-12T08:37:19.879Z,97094.00
2022-10-12T08:39:46.502Z,97059.06
2022-10-12T08:42:16.154Z,97098.03
2022-10-12T08:44:42.743Z,97099.38
2022-10-12T08:47:22.784Z,97080.03
2022-10-12T08:49:51.044Z,97032.22
2022-10-12T08:52:41.768Z,97089.50
2022-10-12T08:55:33.137Z,97060.59
2022-10-12T08:58:00.146Z,97071.72
2022-10-12T09:00:29.601Z,97085.91
2022-10-12T09:03:17.711Z,97088.94
2022-10-12T09:05:50.594Z,97093.38
2022-10-12T09:08:38.313Z,97064.28
2022-10-12T09:11:29.439Z,97097.72
2022-10-12T09:14:00.913Z,97073.72
2022-10-12T09:16:32.046Z,97094.84
2022-10-12T09:19:03.449Z,97062.97
2022-10-12T09:21:32.822Z,97072.16
2022-10-12T09:24:00.257Z,97062.22
2022-10-12T09:26:37.296Z,97091.25
2022-10-12T09:29:14.840Z,97087.66
2022-10-12T09:32:02.968Z,97095.19
2022-10-12T09:34:29.650Z,97067.50
2022-10-12T09:36:56.412Z,97076.97
2022-10-12T09:39:31.461Z,97095.38
2022-10-12T09:41:58.124Z,97075.75
2022-10-12T09:44:40.234Z,97108.75
2022-10-12T09:47:27.387Z,97105.94
2022-10-12T09:49:58.930Z,97094.88
2022-10-12T09:52:30.222Z,97101.09
2022-10-12T09:55:05.275Z,97071.19
2022-10-12T09:57:37.760Z,97041.59
2022-10-12T10:00:24.664Z,97103.28
2022-10-12T10:02:52.708Z,97095.53
2022-10-12T10:05:27.913Z,97079.00
2022-10-12T10:08:14.465Z,97071.81
2022-10-12T10:11:01.611Z,97063.38
2022-10-12T10:13:33.505Z,97074.63
2022-10-12T10:16:09.244Z,97020.94
2022-10-12T10:18:37.000Z,97088.56
2022-10-12T10:21:06.539Z,97054.97
2022-10-12T10:23:44.680Z,97074.25
2022-10-12T10:28:56.480Z,97040.78
2022-10-12T10:31:28.003Z,97067.56
2022-10-12T10:34:11.091Z,97089.06
2022-10-12T10:36:50.327Z,97083.34
2022-10-12T10:39:47.898Z,97065.53
2022-10-12T10:42:20.468Z,97064.00
2022-10-12T10:44:51.057Z,97091.38
2022-10-12T10:47:18.251Z,97071.06
2022-10-12T10:50:13.878Z,97090.88
2022-10-12T10:52:41.121Z,97062.78
2022-10-12T10:55:10.743Z,97078.84
2022-10-12T10:57:46.685Z,97060.09
2022-10-12T11:00:37.990Z,97073.56
2022-10-12T11:03:16.879Z,97050.88
2022-10-12T11:05:50.407Z,97080.38
2022-10-12T11:08:26.871Z,97043.03
2022-10-12T11:11:02.855Z,96990.88
2022-10-12T11:13:43.697Z,97078.25
2022-10-12T11:16:29.115Z,97071.00
2022-10-12T11:18:59.725Z,97069.81
2022-10-12T11:21:43.146Z,97075.47
2022-10-12T11:24:17.229Z,97006.75
2022-10-12T11:26:50.061Z,97038.91
2022-10-12T11:29:18.079Z,97063.47
2022-10-12T11:31:56.718Z,97054.66
2022-10-12T11:34:26.120Z,97034.88
2022-10-12T11:37:18.036Z,97064.34
2022-10-12T11:39:47.283Z,97021.59
2022-10-12T11:42:30.670Z,97063.09
2022-10-12T11:45:00.291Z,97041.22
2022-10-12T11:47:29.968Z,97053.88
2022-10-12T11:50:33.189Z,97051.00
2022-10-12T11:53:02.346Z,97002.94
2022-10-12T11:56:08.095Z,97040.31
2022-10-12T11:58:59.826Z,97019.03
2022-10-12T12:01:45.208Z,97043.53
2022-10-12T12:04:47.734Z,97048.25
2022-10-12T12:07:47.768Z,97041.97
2022-10-12T12:10:26.694Z,97032.25
2022-10-12T12:13:13.101Z,97037.63
2022-10-12T12:15:41.542Z,97018.78
2022-10-12T12:18:15.502Z,97037.03
2022-10-12T12:20:42.437Z,97031.41
2022-10-12T12:23:26.416Z,97030.59
2022-10-12T12:26:16.216Z,97027.53
2022-10-12T12:28:49.418Z,96988.09
2022-10-12T12:31:28.250Z,97025.78
2022-10-12T12:34:05.777Z,96951.78
2022-10-12T12:36:35.639Z,97018.53
2022-10-12T12:39:06.255Z,96991.63
2022-10-12T12:42:02.022Z,96918.69
2022-10-12T12:44:38.061Z,97014.09
2022-10-12T12:47:26.077Z,97011.34
2022-10-12T12:50:29.318Z,97016.50
2022-10-12T12:53:21.959Z,96993.88
2022-10-12T12:56:05.280Z,97014.38
2022-10-12T12:59:01.180Z,96980.25
2022-10-12T13:02:19.418Z,97021.31
2022-10-12T13:05:10.901Z,97027.13
2022-10-12T13:07:52.868Z,97011.38
2022-10-12T13:10:41.160Z,97019.75
2022-10-12T13:13:43.351Z,97019.88
2022-10-12T13:16:09.901Z,97024.34
2022-10-12T13:18:57.223Z,96978.84
2022-10-12T13:21:26.892Z,96996.16
2022-10-12T13:24:03.111Z,97020.59
2022-10-12T13:26:32.405Z,96982.06
2022-10-12T13:29:02.718Z,97024.06
2022-10-12T13:31:41.064Z,96983.25
2022-10-12T13:34:17.561Z,97011.41
2022-10-12T13:36:53.527Z,97013.84
2022-10-12T13:39:21.985Z,96983.13
2022-10-12T13:41:52.401Z,96960.84
2022-10-12T13:44:23.064Z,96984.78
2022-10-12T13:46:59.186Z,96955.09
2022-10-12T13:49:35.184Z,96932.00
2022-10-12T13:52:32.920Z,96976.06
2022-10-12T13:55:01.065Z,96944.28
2022-10-12T13:57:31.984Z,96981.63
2022-10-12T14:00:07.835Z,96951.56
2022-10-12T14:02:34.945Z,96937.56
2022-10-12T14:05:05.135Z,96969.88
2022-10-12T14:07:38.771Z,96975.19
2022-10-12T14:10:16.505Z,96987.28
2022-10-12T14:12:46.212Z,96954.44
2022-10-12T14:15:14.558Z,96963.66
2022-10-12T14:17:45.914Z,96979.19
2022-10-12T14:20:26.765Z,96978.31
2022-10-12T14:22:53.633Z,96934.09
2022-10-12T14:25:28.713Z,96974.88
2022-10-12T14:28:07.138Z,96967.34
2022-10-12T14:30:38.565Z,96968.50
2022-10-12T14:33:16.211Z,96935.41
2022-10-12T14:35:47.849Z,96963.06
2022-10-12T14:38:41.418Z,96957.50
2022-10-12T14:41:29.921Z,96962.75
2022-10-12T14:44:16.182Z,96950.97
2022-10-12T14:46:52.630Z,96958.66
2022-10-12T14:49:46.987Z,96860.06
2022-10-12T14:52:53.623Z,96956.38
2022-10-12T14:55:26.935Z,96932.50
2022-10-12T14:57:53.703Z,96940.22
2022-10-12T15:00:26.047Z,96952.72
2022-10-12T15:02:53.536Z,96952.31
2022-10-12T15:05:22.887Z,96918.50
2022-10-12T15:07:50.620Z,96930.56
2022-10-12T15:10:20.866Z,96924.22
2022-10-12T15:12:47.878Z,96901.56
2022-10-12T15:15:31.281Z,96929.53
2022-10-12T15:17:58.573Z,96896.63
2022-10-12T15:20:26.692Z,96902.22
2022-10-12T15:22:53.457Z,96900.63
2022-10-12T15:25:32.346Z,96879.97
2022-10-12T15:27:59.067Z,96912.19
2022-10-12T15:30:25.753Z,96852.94
2022-10-12T15:32:52.695Z,96829.94
2022-10-12T15:35:25.321Z,96879.16
2022-10-12T15:37:53.608Z,96912.63
2022-10-12T15:40:20.903Z,96897.88
2022-10-12T15:42:47.909Z,96910.22
2022-10-12T15:45:22.974Z,96906.66
2022-10-12T15:47:51.047Z,96879.91
2022-10-12T15:50:20.996Z,96906.53
2022-10-12T15:52:47.722Z,96905.03
2022-10-12T15:55:22.016Z,96902.22
2022-10-12T15:57:48.748Z,96889.19
2022-10-12T16:00:17.857Z,96905.16
2022-10-12T16:02:44.806Z,96823.59
2022-10-12T16:05:22.820Z,96902.34
2022-10-12T16:07:49.817Z,96843.69
2022-10-12T16:10:18.877Z,96895.72
2022-10-12T16:12:51.135Z,96861.50
2022-10-12T16:15:29.946Z,96894.94
2022-10-12T16:17:57.936Z,96889.03
2022-10-12T16:20:25.385Z,96895.47
2022-10-12T16:22:52.680Z,96852.53
2022-10-12T16:25:23.871Z,96894.34
2022-10-12T16:27:52.286Z,96896.13
2022-10-12T16:30:19.344Z,96868.06
2022-10-12T16:32:46.090Z,96835.38
2022-10-12T16:35:14.081Z,96798.50
2022-10-12T16:37:41.052Z,96903.19
2022-10-12T16:40:08.857Z,96902.72
2022-10-12T16:42:35.971Z,96854.25
2022-10-12T16:45:04.305Z,96886.06
2022-10-12T16:47:31.420Z,96903.16
2022-10-12T16:49:58.200Z,96873.50
2022-10-12T16:52:25.606Z,96865.78
2022-10-12T16:54:53.139Z,96897.59
2022-10-12T16:57:19.896Z,96910.00
2022-10-12T16:59:48.188Z,96851.38
2022-10-12T17:02:16.420Z,96910.88
2022-10-12T17:04:43.912Z,96905.66
2022-10-12T17:07:10.662Z,96903.03
2022-10-12T17:09:37.272Z,96876.09
2022-10-12T17:12:04.227Z,96884.63
2022-10-12T17:14:30.956Z,96872.22
2022-10-12T17:16:57.664Z,96856.34
2022-10-12T17:19:33.060Z,96908.00
2022-10-12T17:22:01.502Z,96863.56
2022-10-12T17:24:29.794Z,96901.91
2022-10-12T17:26:57.052Z,96915.03
2022-10-12T17:29:26.095Z,96904.38
2022-10-12T17:31:55.097Z,96862.81
2022-10-12T17:34:32.911Z,96901.88
2022-10-12T17:37:01.384Z,96899.72
2022-10-12T17:39:31.269Z,96879.78
2022-10-12T17:41:57.977Z,96887.72
2022-10-12T17:44:25.589Z,96872.66
2022-10-12T17:46:52.765Z,96908.59
2022-10-12T17:49:24.937Z,96884.50
2022-10-12T17:51:51.923Z,96895.66
2022-10-12T17:54:20.455Z,96904.41
2022-10-12T17:56:47.205Z,96894.75
2022-10-12T17:59:16.143Z,96881.38
2022-10-12T18:01:42.815Z,96880.28
2022-10-12T18:04:11.296Z,96834.84
2022-10-12T18:06:38.840Z,96889.31
2022-10-12T18:09:07.964Z,96809.78
2022-10-12T18:11:36.006Z,96911.69
2022-10-12T18:14:02.739Z,96852.41
2022-10-12T18:16:32.609Z,96832.50
2022-10-12T18:19:01.913Z,96912.13
2022-10-12T18:21:31.263Z,96908.25
2022-10-12T18:24:02.079Z,96898.16
2022-10-12T18:26:30.536Z,96833.13
2022-10-12T18:29:00.141Z,96905.47
2022-10-12T18:31:27.804Z,96902.03
2022-10-12T18:33:55.805Z,96881.31
2022-10-12T18:36:22.964Z,96881.16
2022-10-12T18:38:49.640Z,96887.53
2022-10-12T18:41:22.074Z,96910.22
2022-10-12T18:43:49.817Z,96881.09
2022-10-12T18:46:19.859Z,96857.63
2022-10-12T18:48:48.314Z,96856.41
2022-10-12T18:51:17.059Z,96908.50
2022-10-12T18:53:43.862Z,96895.56
2022-10-12T18:56:11.103Z,96890.59
2022-10-12T18:58:38.324Z,96857.63
2022-10-12T19:01:14.633Z,96892.94
2022-10-12T19:03:41.676Z,96910.31
2022-10-12T19:06:20.757Z,96899.19
2022-10-12T19:08:50.636Z,96858.22
2022-10-12T19:11:21.392Z,96914.72
2022-10-12T19:13:57.920Z,96908.19
2022-10-12T19:16:24.982Z,96890.69
2022-10-12T19:19:19.730Z,96907.53
2022-10-12T19:21:48.165Z,96922.75
2022-10-12T19:24:15.922Z,96847.41
2022-10-12T19:26:43.171Z,96903.81
2022-10-12T19:29:12.793Z,96887.16
2022-10-12T19:31:42.960Z,96895.13
2022-10-12T19:34:12.325Z,96897.59
2022-10-12T19:36:39.928Z,96925.41
2022-10-12T19:39:11.381Z,96927.91
2022-10-12T19:41:38.057Z,96878.41
2022-10-12T19:44:05.017Z,96885.16
2022-10-12T19:46:31.862Z,96849.81
2022-10-12T19:49:00.047Z,96909.13
2022-10-12T19:51:28.410Z,96911.25
2022-10-12T19:53:56.562Z,96872.97
2022-10-12T19:56:24.038Z,96898.59
2022-10-12T19:58:52.976Z,96907.25
2022-10-12T20:01:22.402Z,96856.00
2022-10-12T20:03:50.845Z,96862.09
2022-10-12T20:06:22.895Z,96852.59
2022-10-12T20:08:51.930Z,96885.38
2022-10-12T20:11:21.543Z,96865.31
2022-10-12T20:13:50.668Z,96879.84
2022-10-12T20:16:18.975Z,96878.00
2022-10-12T20:18:46.357Z,96916.22
2022-10-12T20:21:15.431Z,96879.31
2022-10-12T20:23:43.295Z,96918.09
2022-10-12T20:26:13.588Z,96924.78
2022-10-12T20:28:40.462Z,96924.06
2022-10-12T20:31:07.961Z,96904.13
2022-10-12T20:33:36.378Z,96933.50
2022-10-12T20:36:07.180Z,96939.34
2022-10-12T20:38:33.805Z,96887.94
2022-10-12T20:41:09.377Z,96933.13
2022-10-12T20:43:40.392Z,96894.31
2022-10-12T20:46:10.598Z,96926.72
2022-10-12T20:48:39.736Z,96898.41
2022-10-12T20:51:08.076Z,96920.44
2022-10-12T20:53:35.172Z,96861.59
2022-10-12T20:56:08.956Z,96884.59
2022-10-12T20:58:35.596Z,96868.16
2022-10-12T21:01:07.313Z,96905.38
2022-10-12T21:03:34.901Z,96908.63
2022-10-12T21:06:06.195Z,96925.50
2022-10-12T21:08:33.223Z,96893.03
2022-10-12T21:11:00.816Z,96868.41
2022-10-12T21:13:34.005Z,96919.72
2022-10-12T21:16:00.726Z,96901.03
2022-10-12T21:18:32.845Z,96882.25
2022-10-12T21:21:05.204Z,96825.84
2022-10-12T21:23:31.792Z,96898.13
2022-10-12T21:25:58.392Z,96873.41
2022-10-12T21:28:25.082Z,96900.00
2022-10-12T21:30:51.790Z,96849.03
2022-10-12T21:33:19.164Z,96900.38
2022-10-12T21:35:45.781Z,96884.28
2022-10-12T21:38:12.465Z,96887.72
2022-10-12T21:40:39.094Z,96808.81
2022-10-12T21:43:05.735Z,96910.59
2022-10-12T21:45:32.703Z,96903.69
2022-10-12T21:47:59.682Z,96907.91
2022-10-12T21:50:27.235Z,96868.81
2022-10-12T21:52:59.327Z,96888.31
2022-10-12T21:55:27.068Z,96868.53
2022-10-12T21:57:53.803Z,96852.44
2022-10-12T22:00:20.643Z,96901.16
2022-10-12T22:02:48.072Z,96910.81
2022-10-12T22:05:14.773Z,96863.44
2022-10-12T22:07:42.675Z,96913.84
2022-10-12T22:10:10.921Z,96911.81
2022-10-12T22:12:37.665Z,96873.88
2022-10-12T22:15:05.105Z,96896.00
2022-10-12T22:17:31.684Z,96855.34
2022-10-12T22:19:58.295Z,96882.34
2022-10-12T22:22:24.941Z,96906.91
2022-10-12T22:24:51.503Z,96863.84
2022-10-12T22:27:21.237Z,96844.19
2022-10-12T22:29:47.858Z,96893.16
2022-10-12T22:32:15.132Z,96864.16
2022-10-12T22:34:41.786Z,96857.88
2022-10-12T22:37:08.784Z,96872.03
2022-10-12T22:39:35.543Z,96856.34
2022-10-12T22:42:02.180Z,96895.31
2022-10-12T22:44:28.735Z,96844.94
2022-10-12T22:46:56.955Z,96841.03
2022-10-12T22:49:23.547Z,96887.34
2022-10-12T22:51:50.201Z,96863.66
2022-10-12T22:54:16.848Z,96870.78
2022-10-12T22:56:45.247Z,96841.00
2022-10-12T22:59:14.329Z,96893.56
2022-10-12T23:01:41.203Z,96893.38
2022-10-12T23:04:08.175Z,96883.41
2022-10-12T23:06:35.004Z,96854.28
2022-10-12T23:09:02.179Z,96868.72
2022-10-12T23:11:29.524Z,96860.63
2022-10-12T23:13:57.584Z,96865.00
2022-10-12T23:16:26.878Z,96809.38
2022-10-12T23:18:59.243Z,96865.09
2022-10-12T23:21:27.609Z,96870.75
2022-10-12T23:23:54.314Z,96871.63
2022-10-12T23:26:23.303Z,96864.50
2022-10-12T23:28:50.515Z,96817.38
2022-10-12T23:31:20.116Z,96818.66
2022-10-12T23:33:47.623Z,96826.03
2022-10-12T23:36:17.042Z,96870.16
2022-10-12T23:38:44.592Z,96877.00
2022-10-12T23:41:12.928Z,96863.34
2022-10-12T23:43:40.002Z,96885.47
2022-10-12T23:46:07.413Z,96871.91
2022-10-12T23:48:34.480Z,96871.91
2022-10-12T23:51:01.092Z,96854.56
2022-10-12T23:53:28.505Z,96868.69
2022-10-12T23:55:55.165Z,96865.69
2022-10-12T23:58:22.110Z,96869.97
